Disclaimer

Please do not use the information listed here in-flight or in-navigation, as they are not provided to us by the airports but are provided by volunteers, so they might be outdated.

Search


Regions


Airport information page

Radio informations:
FUZHOU TWR - 118.45 MHz
FUZHOU GND - 121.9 MHz
Automatic Terminal Information Service (ATIS) - 126.4 MHz

Airport informations:
Latitude: 25° 56' 06.23" N
Longitude: 119° 39' 47.78" E
Elevation: 46 feet - 14 meters
Operating hours: Remarks
Operating agency: Civil government, landing fees and diplomatic clearance may be required
Timezone: UTC+8
Fuel: Jet fuel avaiable but type is unknown.

Runway information:
03/21 - 11841 x 150 feet< - >3609 x 46 meters

Recent METARs:
ZSFZ 182300Z 05007MPS 9999 BKN011 OVC017 18/16 Q1021 NOSIG
ZSFZ 182300Z 05007MPS 9999 BKN011 OVC017 18/16 Q1021 NOSIG
ZSFZ 190000Z 05006MPS 9999 BKN015 OVC021 18/16 Q1021 NOSIG

Airport on the map: